Time;durP1;ratioP1;P1;durP2;ratioP2;P2;SDS_P1;SDS_P2;PMS_P1;PMS_P2;Temp;Humidity;BMP_temperature;BMP_pressure;BME280_temperature;BME280_humidity;BME280_pressure;Samples;Min_cycle;Max_cycle;Signal;HPM_P1;HPM_P2
2021/10/24 00:02:11;;;;;;;8.35;6.15;;;;;;;15.88;65.35;101977.31;5018207;28;101922;-91
2021/10/24 00:04:38;;;;;;;7.97;6.00;;;;;;;15.89;65.58;101978.13;5017572;27;102110;-91
2021/10/24 00:07:04;;;;;;;9.98;6.57;;;;;;;15.89;65.06;101976.22;5011065;27;102675;-90
2021/10/24 00:09:31;;;;;;;8.30;5.95;;;;;;;15.90;65.28;101963.28;5003456;28;101989;-89
2021/10/24 00:12:00;;;;;;;8.98;6.13;;;;;;;15.90;65.50;101969.59;5002797;27;102018;-90
2021/10/24 00:14:27;;;;;;;9.20;6.47;;;;;;;15.90;65.28;101958.63;5004235;27;102141;-90
2021/10/24 00:16:53;;;;;;;8.27;6.03;;;;;;;15.90;65.48;101957.81;5001074;28;102390;-90
2021/10/24 00:19:20;;;;;;;8.23;6.07;;;;;;;15.90;65.42;101969.59;5003440;28;101757;-89
2021/10/24 00:21:47;;;;;;;9.40;6.45;;;;;;;15.90;65.64;101957.81;5002635;28;101621;-89
2021/10/24 00:24:14;;;;;;;8.30;6.10;;;;;;;15.90;65.24;101950.38;5003735;27;102019;-90
2021/10/24 00:26:40;;;;;;;9.07;6.45;;;;;;;15.91;65.21;101954.81;5002424;28;102722;-90
2021/10/24 00:29:09;;;;;;;8.43;6.20;;;;;;;15.89;65.54;101951.50;5001848;28;102078;-90
2021/10/24 00:31:35;;;;;;;10.57;6.65;;;;;;;15.90;65.60;101947.66;5001566;28;102148;-90
2021/10/24 00:34:03;;;;;;;9.20;6.47;;;;;;;15.90;65.58;101947.66;5003889;27;102007;-90
2021/10/24 00:36:30;;;;;;;8.32;5.97;;;;;;;15.91;65.17;101953.97;5001142;28;102760;-90
2021/10/24 00:38:56;;;;;;;8.40;6.25;;;;;;;15.89;65.16;101959.72;5001804;28;101663;-90
2021/10/24 00:41:23;;;;;;;8.27;6.20;;;;;;;15.91;65.13;101974.03;5002613;28;101631;-89
2021/10/24 00:43:49;;;;;;;8.52;6.57;;;;;;;15.90;65.54;101986.09;5002784;28;102094;-89
2021/10/24 00:46:17;;;;;;;8.07;6.30;;;;;;;15.90;65.50;101994.31;5002173;27;102408;-90
2021/10/24 00:48:44;;;;;;;8.82;5.63;;;;;;;15.90;65.66;101997.06;5002534;28;101567;-90
2021/10/24 00:51:10;;;;;;;8.98;6.60;;;;;;;15.90;65.28;101991.56;5011093;27;101791;-86
2021/10/24 00:53:37;;;;;;;8.07;5.53;;;;;;;15.91;65.59;101986.94;5021806;28;102105;-84
2021/10/24 00:56:05;;;;;;;8.50;6.20;;;;;;;15.91;65.49;101981.44;5021503;28;102832;-86
2021/10/24 00:58:33;;;;;;;8.45;6.15;;;;;;;15.91;65.39;101993.25;5014942;27;102045;-85
2021/10/24 01:01:01;;;;;;;7.35;5.68;;;;;;;15.91;65.58;101998.72;5021629;28;101829;-85
2021/10/24 01:03:29;;;;;;;8.17;5.97;;;;;;;15.91;65.35;101992.41;5023139;27;102170;-85
2021/10/24 01:05:59;;;;;;;7.75;5.60;;;;;;;15.91;65.30;102000.66;5020085;27;106317;-87
2021/10/24 01:08:26;;;;;;;7.22;5.72;;;;;;;15.91;65.37;102009.72;5022147;28;101837;-86
2021/10/24 01:10:53;;;;;;;7.60;5.80;;;;;;;15.92;65.48;101999.56;5021206;27;101897;-86
2021/10/24 01:13:19;;;;;;;9.02;5.53;;;;;;;15.92;65.73;101994.06;5022770;27;102041;-86
2021/10/24 01:15:46;;;;;;;8.05;5.78;;;;;;;15.92;65.51;101999.56;5021337;27;102437;-86
2021/10/24 01:18:13;;;;;;;6.15;5.13;;;;;;;15.92;65.35;101994.88;5019837;28;102015;-85
2021/10/24 01:20:40;;;;;;;7.30;5.57;;;;;;;15.92;65.65;102000.38;5020594;28;101751;-85
2021/10/24 01:23:09;;;;;;;8.25;5.80;;;;;;;15.93;65.52;102012.97;5022657;27;101819;-86
2021/10/24 01:25:36;;;;;;;6.82;5.20;;;;;;;15.92;65.27;102022.34;5008737;28;102733;-85
2021/10/24 01:28:03;;;;;;;7.80;5.80;;;;;;;15.93;65.85;102028.63;5021943;27;101740;-86
2021/10/24 01:30:30;;;;;;;7.55;5.43;;;;;;;15.93;65.37;102023.16;5021040;27;101864;-92
2021/10/24 01:32:57;;;;;;;8.82;6.18;;;;;;;15.92;65.57;102022.34;5005068;27;102156;-86
2021/10/24 01:35:23;;;;;;;8.68;5.78;;;;;;;15.93;65.57;102034.94;5000768;28;102729;-86
2021/10/24 01:37:50;;;;;;;8.40;6.05;;;;;;;15.93;65.73;102034.13;5020008;28;101899;-85
2021/10/24 01:40:19;;;;;;;7.20;5.60;;;;;;;15.93;65.73;102039.63;5019307;28;101956;-85
2021/10/24 01:42:48;;;;;;;7.80;5.50;;;;;;;15.92;65.61;102036.06;5022098;28;102084;-85
2021/10/24 01:45:15;;;;;;;8.38;5.47;;;;;;;15.93;65.72;102037.69;5018863;27;102727;-85
2021/10/24 01:47:42;;;;;;;9.13;6.55;;;;;;;15.94;65.50;102044.84;5021798;27;101862;-85
2021/10/24 01:50:08;;;;;;;9.02;5.97;;;;;;;15.92;65.45;102030.56;5020634;27;102098;-85
2021/10/24 01:52:40;;;;;;;7.97;6.25;;;;;;;15.93;65.72;102029.47;5021182;27;101985;-85
2021/10/24 01:55:08;;;;;;;7.22;5.40;;;;;;;15.93;65.73;102034.94;5008137;28;102766;-86
2021/10/24 01:57:36;;;;;;;6.97;5.13;;;;;;;15.92;65.46;102030.56;5025041;28;102094;-85
2021/10/24 02:00:04;;;;;;;7.32;5.80;;;;;;;15.92;65.47;102025.06;5024259;27;102209;-86
2021/10/24 02:02:32;;;;;;;7.75;5.15;;;;;;;15.94;65.72;102020.16;5019379;27;102084;-85
2021/10/24 02:05:00;;;;;;;7.68;5.35;;;;;;;15.93;65.52;102018.47;5004221;28;102802;-86
2021/10/24 02:07:27;;;;;;;6.57;5.18;;;;;;;15.93;65.69;102017.66;5018946;27;101809;-85
2021/10/24 02:09:53;;;;;;;7.32;5.53;;;;;;;15.93;65.32;102034.94;5016592;27;101878;-85
2021/10/24 02:12:21;;;;;;;7.47;5.25;;;;;;;15.93;65.52;102039.63;5022855;27;101986;-85
2021/10/24 02:14:51;;;;;;;6.03;4.78;;;;;;;15.93;65.46;102028.63;5014613;28;102779;-86
2021/10/24 02:17:18;;;;;;;6.70;5.10;;;;;;;15.92;65.50;102033.31;5024779;27;101961;-85
2021/10/24 02:19:45;;;;;;;6.57;4.97;;;;;;;15.92;65.67;102027.81;5024651;27;101839;-85
2021/10/24 02:22:11;;;;;;;6.97;4.78;;;;;;;15.92;65.56;102044.28;5025070;27;102160;-86
2021/10/24 02:24:38;;;;;;;6.97;4.55;;;;;;;15.93;65.48;102050.59;5022172;27;104267;-85
2021/10/24 02:27:05;;;;;;;7.47;5.32;;;;;;;15.92;65.48;102044.28;5020839;27;101757;-86
2021/10/24 02:29:31;;;;;;;5.45;4.63;;;;;;;15.91;65.36;102064.63;5023787;27;101769;-85
2021/10/24 02:31:59;;;;;;;7.78;5.25;;;;;;;15.94;65.98;102074.22;5019385;27;102064;-85
2021/10/24 02:34:26;;;;;;;7.28;5.07;;;;;;;15.93;65.67;102072.56;5022429;28;102717;-85
2021/10/24 02:36:52;;;;;;;6.03;4.85;;;;;;;15.93;65.72;102075.31;5024081;27;102117;-85
2021/10/24 02:39:19;;;;;;;6.68;5.05;;;;;;;15.93;65.55;102078.88;5021890;27;102044;-85
2021/10/24 02:41:46;;;;;;;6.65;4.85;;;;;;;15.93;65.45;102078.88;5023603;27;102076;-85
2021/10/24 02:44:14;;;;;;;6.70;4.97;;;;;;;15.94;65.99;102074.22;5007325;28;102651;-92
2021/10/24 02:46:40;;;;;;;6.75;4.60;;;;;;;15.93;65.52;102067.91;5015657;27;101885;-86
2021/10/24 02:49:09;;;;;;;6.18;4.95;;;;;;;15.93;65.75;102062.41;5024124;27;101963;-90
2021/10/24 02:51:37;;;;;;;5.88;4.63;;;;;;;15.93;65.84;102062.41;5025175;27;102122;-90
2021/10/24 02:54:04;;;;;;;6.22;4.82;;;;;;;15.94;65.54;102068.72;5023522;27;102726;-91
2021/10/24 02:56:31;;;;;;;6.55;4.95;;;;;;;15.93;65.51;102059.66;5023451;28;101745;-90
2021/10/24 02:58:57;;;;;;;5.93;4.72;;;;;;;15.92;65.79;102058.03;5023999;27;101651;-90
2021/10/24 03:01:24;;;;;;;7.85;4.97;;;;;;;15.93;65.85;102062.41;5023661;28;102175;-90
2021/10/24 03:03:50;;;;;;;7.35;5.40;;;;;;;15.93;65.73;102062.41;5022642;28;102773;-90
2021/10/24 03:06:18;;;;;;;6.95;4.60;;;;;;;15.93;65.67;102070.63;5024127;27;101905;-90
2021/10/24 03:08:45;;;;;;;6.57;4.90;;;;;;;15.93;65.79;102067.91;5024043;27;101933;-89
2021/10/24 03:11:11;;;;;;;7.15;4.45;;;;;;;15.93;65.75;102067.91;5025290;27;102029;-91
2021/10/24 03:13:41;;;;;;;7.70;4.90;;;;;;;15.93;65.90;102073.38;5022318;28;103797;-90
2021/10/24 03:16:08;;;;;;;8.30;5.20;;;;;;;15.93;65.50;102067.91;5024347;28;101505;-90
2021/10/24 03:18:35;;;;;;;8.20;4.68;;;;;;;15.93;65.80;102062.41;5023987;27;101681;-90
2021/10/24 03:21:02;;;;;;;6.78;5.13;;;;;;;15.93;65.87;102072.56;5024439;27;102065;-92
2021/10/24 03:23:30;;;;;;;6.57;4.82;;;;;;;15.93;65.44;102073.38;5018821;27;102706;-91
2021/10/24 03:25:57;;;;;;;5.88;4.65;;;;;;;15.93;65.70;102078.88;5018986;27;102060;-91
2021/10/24 03:28:23;;;;;;;9.05;4.85;;;;;;;15.93;65.82;102084.38;5006773;27;102159;-86
2021/10/24 03:30:50;;;;;;;6.68;4.80;;;;;;;15.94;65.93;102076.94;5011086;27;102121;-91
2021/10/24 03:33:16;;;;;;;6.60;4.95;;;;;;;15.93;65.63;102076.13;5015022;27;102712;-91
2021/10/24 03:35:43;;;;;;;6.50;4.45;;;;;;;15.93;65.99;102084.38;5020720;27;102050;-90
2021/10/24 03:38:10;;;;;;;6.57;4.00;;;;;;;15.94;65.59;102087.94;5023117;27;101684;-87
2021/10/24 03:40:38;;;;;;;6.60;4.85;;;;;;;15.93;65.66;102098.09;5024693;27;102004;-91
2021/10/24 03:43:05;;;;;;;6.15;4.75;;;;;;;15.93;65.80;102092.59;5022992;27;102717;-90
2021/10/24 03:45:32;;;;;;;7.10;4.88;;;;;;;15.93;66.05;102087.13;5023792;27;101744;-90
2021/10/24 03:47:59;;;;;;;6.18;4.47;;;;;;;15.95;66.00;102097.84;5023160;27;101513;-89
2021/10/24 03:50:26;;;;;;;6.88;4.28;;;;;;;15.94;65.65;102097.03;5024093;27;102158;-90
2021/10/24 03:52:52;;;;;;;5.78;4.40;;;;;;;15.93;65.72;102095.34;5022908;27;102710;-89
2021/10/24 03:55:19;;;;;;;5.43;4.13;;;;;;;15.93;65.57;102100.84;5023334;27;102029;-90
2021/10/24 03:57:47;;;;;;;5.72;4.63;;;;;;;15.93;65.66;102092.59;5023366;27;102034;-90
2021/10/24 04:00:14;;;;;;;7.53;4.40;;;;;;;15.93;65.96;102100.84;5022978;27;102073;-90
2021/10/24 04:02:52;;;;;;;6.25;4.47;;;;;;;15.93;65.73;102100.84;5022836;27;102443;-90
2021/10/24 04:05:18;;;;;;;7.35;4.35;;;;;;;15.93;66.03;102109.09;5023364;27;101993;-90
2021/10/24 04:07:47;;;;;;;6.68;4.40;;;;;;;15.93;66.00;102106.34;5023286;27;101983;-90
2021/10/24 04:10:15;;;;;;;6.65;4.30;;;;;;;15.93;65.81;102106.34;5023857;27;103619;-90
2021/10/24 04:12:42;;;;;;;6.82;4.55;;;;;;;15.93;65.96;102100.84;5022648;27;101513;-90
2021/10/24 04:15:10;;;;;;;6.38;4.53;;;;;;;15.93;65.82;102103.59;5021976;27;101546;-90
2021/10/24 04:17:37;;;;;;;4.90;3.80;;;;;;;15.93;65.97;102100.84;5022311;27;101635;-90
2021/10/24 04:20:05;;;;;;;6.63;4.30;;;;;;;15.94;65.65;102109.91;5020008;27;102139;-91
2021/10/24 04:22:32;;;;;;;7.63;5.30;;;;;;;15.94;65.86;102112.66;5013188;27;102480;-91
2021/10/24 04:24:58;;;;;;;6.65;4.60;;;;;;;15.94;65.67;102118.13;5022551;27;102002;-86
2021/10/24 04:27:25;;;;;;;5.72;4.47;;;;;;;15.94;65.70;102118.13;5021307;27;102056;-90
2021/10/24 04:29:52;;;;;;;5.30;4.18;;;;;;;15.92;65.96;102121.16;5012178;28;102564;-90
2021/10/24 04:32:19;;;;;;;4.88;3.83;;;;;;;15.94;65.68;102134.59;5011004;27;102789;-90
2021/10/24 04:34:46;;;;;;;6.03;4.22;;;;;;;15.94;65.53;102137.34;5010208;27;102181;-90
2021/10/24 04:37:13;;;;;;;5.57;3.95;;;;;;;15.93;65.59;102135.72;5015853;27;102253;-91
2021/10/24 04:39:39;;;;;;;5.75;4.05;;;;;;;15.93;65.88;102142.03;5015254;28;102328;-90
2021/10/24 04:42:06;;;;;;;6.05;4.40;;;;;;;15.94;65.98;102137.34;5020007;27;102370;-90
2021/10/24 04:44:32;;;;;;;5.78;4.18;;;;;;;15.94;65.78;102156.56;5019068;27;101897;-90
2021/10/24 04:46:59;;;;;;;5.07;3.80;;;;;;;15.94;65.80;102148.34;5021122;27;102134;-90
2021/10/24 04:49:27;;;;;;;5.45;3.95;;;;;;;15.95;65.52;102147.25;5023452;27;101950;-90
2021/10/24 04:51:53;;;;;;;5.38;4.13;;;;;;;15.94;65.94;102157.44;5020427;27;102778;-90
2021/10/24 04:54:21;;;;;;;4.63;3.60;;;;;;;15.94;65.92;102157.44;5022378;27;102140;-90
2021/10/24 04:56:47;;;;;;;4.95;3.95;;;;;;;15.93;65.56;102161.25;5022008;27;102065;-90
2021/10/24 04:59:13;;;;;;;5.22;3.90;;;;;;;15.94;65.86;102159.31;5023209;27;102162;-90
2021/10/24 05:01:42;;;;;;;5.15;4.10;;;;;;;15.94;65.73;102167.56;5020827;27;102758;-90
2021/10/24 05:04:09;;;;;;;6.20;3.87;;;;;;;15.94;66.14;102184.03;5022428;27;101747;-90
2021/10/24 05:06:38;;;;;;;5.97;3.90;;;;;;;15.94;65.58;102178.53;5022372;27;101655;-90
2021/10/24 05:09:05;;;;;;;6.10;4.37;;;;;;;15.94;65.76;102175.78;5023134;27;102031;-90
2021/10/24 05:11:33;;;;;;;5.93;4.13;;;;;;;15.94;66.11;102179.38;5021705;27;102483;-90
2021/10/24 05:14:02;;;;;;;6.45;3.97;;;;;;;15.94;65.97;102184.88;5022645;27;101726;-90
2021/10/24 05:16:28;;;;;;;;;;;;;;;15.95;66.04;102185.69;5022329;27;102013;-90
2021/10/24 05:18:55;;;;;;;5.22;4.00;;;;;;;15.93;66.13;102194.19;5023214;27;102061;-90
2021/10/24 05:21:22;;;;;;;5.22;4.10;;;;;;;15.94;65.62;102201.34;5021636;27;102737;-90
2021/10/24 05:23:50;;;;;;;5.78;3.65;;;;;;;15.94;65.60;102206.84;5022324;27;101879;-90
2021/10/24 05:26:16;;;;;;;6.60;4.22;;;;;;;15.95;66.22;102203.00;5021876;27;101728;-90
2021/10/24 05:28:43;;;;;;;6.57;4.13;;;;;;;15.94;65.79;102212.34;5023246;27;102008;-90
2021/10/24 05:31:10;;;;;;;6.57;4.32;;;;;;;15.94;66.09;102206.84;5024790;27;102714;-90
2021/10/24 05:33:38;;;;;;;5.53;3.72;;;;;;;15.94;65.65;102212.34;5025724;27;101997;-90
2021/10/24 05:36:04;;;;;;;4.95;4.00;;;;;;;15.95;65.75;102204.91;5025093;27;101564;-91
2021/10/24 05:38:31;;;;;;;5.50;3.70;;;;;;;15.95;65.56;102213.16;5026901;27;102044;-90
2021/10/24 05:40:59;;;;;;;6.03;3.58;;;;;;;15.95;66.14;102208.50;5024917;27;102435;-90
2021/10/24 05:43:27;;;;;;;6.57;4.25;;;;;;;15.94;66.01;102223.31;5025841;27;101509;-90
2021/10/24 05:45:53;;;;;;;6.32;3.65;;;;;;;15.94;66.12;102215.09;5024430;27;101602;-90
2021/10/24 05:48:20;;;;;;;5.70;3.80;;;;;;;15.94;65.67;102217.81;5026564;27;102066;-91
2021/10/24 05:50:47;;;;;;;5.20;3.80;;;;;;;15.94;66.15;102228.81;5024451;27;102744;-91
2021/10/24 05:53:14;;;;;;;5.55;3.70;;;;;;;15.95;65.63;102230.44;5025548;27;101782;-91
2021/10/24 05:55:41;;;;;;;6.55;3.88;;;;;;;15.95;65.84;102230.44;5025284;27;101517;-90
2021/10/24 05:58:09;;;;;;;5.20;3.78;;;;;;;15.94;66.22;102228.81;5025470;27;102100;-90
2021/10/24 06:00:35;;;;;;;5.03;3.65;;;;;;;15.94;65.85;102228.81;5024563;27;102788;-90
2021/10/24 06:03:03;;;;;;;5.63;3.90;;;;;;;15.95;66.25;102244.19;5025653;27;101974;-90
2021/10/24 06:05:31;;;;;;;7.50;4.28;;;;;;;15.95;66.24;102235.94;5025171;27;101950;-90
2021/10/24 06:07:58;;;;;;;6.32;4.32;;;;;;;15.94;65.77;102239.78;5032293;27;102192;-91
2021/10/24 06:10:31;;;;;;;6.32;4.57;;;;;;;15.94;65.80;102239.78;5024432;27;102768;-90
2021/10/24 06:12:58;;;;;;;6.57;4.35;;;;;;;15.95;66.08;102246.94;5025001;27;101483;-89
2021/10/24 06:15:26;;;;;;;6.90;4.80;;;;;;;15.95;65.86;102251.59;5024857;28;101533;-90
2021/10/24 06:17:53;;;;;;;7.63;5.38;;;;;;;15.94;66.00;102239.78;5025710;27;102092;-91
2021/10/24 06:20:21;;;;;;;9.68;5.05;;;;;;;15.95;65.85;102254.34;5024521;27;102616;-90
2021/10/24 06:22:48;;;;;;;8.93;5.83;;;;;;;15.94;65.90;102259.00;5022973;27;101932;-90
2021/10/24 06:25:16;;;;;;;8.82;5.90;;;;;;;15.94;65.77;102250.78;5024783;27;101690;-90
2021/10/24 06:27:44;;;;;;;11.00;6.87;;;;;;;15.94;65.93;102245.28;5025538;27;102191;-91
2021/10/24 06:30:13;;;;;;;10.80;6.53;;;;;;;15.94;66.11;102245.28;5024301;27;102759;-90
2021/10/24 06:32:41;;;;;;;8.95;6.13;;;;;;;15.95;66.02;102243.38;5023510;27;101595;-89
2021/10/24 06:35:08;;;;;;;11.57;7.00;;;;;;;15.94;65.98;102245.28;5024427;27;101649;-89
2021/10/24 06:37:37;;;;;;;12.35;7.68;;;;;;;15.94;66.16;102245.28;5025932;27;102056;-89
2021/10/24 06:40:04;;;;;;;12.30;7.37;;;;;;;15.93;65.55;102243.63;5024334;27;102728;-89
2021/10/24 06:42:31;;;;;;;13.00;6.90;;;;;;;15.94;65.96;102256.28;5023907;27;101812;-89
2021/10/24 06:44:58;;;;;;;12.95;7.43;;;;;;;15.94;66.29;102255.41;5024481;27;101755;-90
2021/10/24 06:47:25;;;;;;;12.27;7.20;;;;;;;15.94;66.19;102256.28;5025873;27;102086;-90
2021/10/24 06:49:53;;;;;;;12.63;7.82;;;;;;;15.95;65.93;102246.09;5020819;27;102711;-93
2021/10/24 06:52:20;;;;;;;12.93;7.97;;;;;;;15.94;65.80;102256.28;5019465;27;102061;-92
2021/10/24 06:54:46;;;;;;;12.48;7.68;;;;;;;15.94;66.12;102260.91;5013081;28;102144;-93
2021/10/24 06:57:13;;;;;;;12.88;8.02;;;;;;;15.94;65.89;102260.91;5014138;27;102089;-92
2021/10/24 06:59:42;;;;;;;11.77;8.00;;;;;;;15.93;65.79;102260.09;5019244;27;102704;-92
2021/10/24 07:02:08;;;;;;;12.38;7.97;;;;;;;15.94;65.78;102259.00;5021248;27;102092;-92
2021/10/24 07:04:35;;;;;;;16.90;8.52;;;;;;;15.94;66.04;102263.66;5015330;28;102185;-92
2021/10/24 07:07:03;;;;;;;10.68;7.03;;;;;;;15.93;65.74;102262.84;5014764;27;102216;-92
2021/10/24 07:09:30;;;;;;;11.95;7.57;;;;;;;15.93;66.26;102268.31;5014446;27;102823;-92
2021/10/24 07:11:57;;;;;;;11.38;7.55;;;;;;;15.94;66.13;102264.50;5016759;27;102067;-93
2021/10/24 07:14:25;;;;;;;13.73;7.22;;;;;;;15.94;65.80;102271.88;5015249;27;102138;-92
2021/10/24 07:16:52;;;;;;;13.90;7.45;;;;;;;15.93;65.78;102268.31;5021285;27;102118;-92
2021/10/24 07:19:18;;;;;;;11.85;7.03;;;;;;;15.94;65.81;102277.38;5019656;27;102798;-92
2021/10/24 07:21:44;;;;;;;10.82;7.00;;;;;;;15.94;66.05;102272.75;5015657;27;102291;-92
2021/10/24 07:24:12;;;;;;;9.38;6.43;;;;;;;15.95;65.81;102273.56;5018753;27;102035;-92
2021/10/24 07:26:40;;;;;;;12.15;7.20;;;;;;;15.94;65.88;102272.75;5007217;27;102085;-86
2021/10/24 07:29:07;;;;;;;9.48;6.93;;;;;;;15.96;65.68;102266.97;5014692;27;102402;-92
2021/10/24 07:31:33;;;;;;;10.13;6.38;;;;;;;15.95;65.69;102266.16;5018992;27;102085;-92
2021/10/24 07:33:59;;;;;;;10.10;6.07;;;;;;;15.95;66.21;102260.66;5017148;27;102189;-93
2021/10/24 07:36:26;;;;;;;10.30;6.95;;;;;;;15.95;65.81;102257.91;5018077;27;102246;-93
2021/10/24 07:38:53;;;;;;;12.52;7.03;;;;;;;15.95;66.11;102263.41;5001486;28;104278;-92
2021/10/24 07:41:20;;;;;;;10.35;6.53;;;;;;;15.96;65.79;102270.53;5003159;27;102417;-92
2021/10/24 07:43:47;;;;;;;10.38;6.72;;;;;;;15.96;66.20;102262.28;5019427;27;102055;-92
2021/10/24 07:46:14;;;;;;;9.68;6.20;;;;;;;15.98;66.11;102264.78;5017113;27;102072;-92
2021/10/24 07:48:41;;;;;;;9.57;6.03;;;;;;;15.97;66.22;102269.44;5021221;27;102772;-92
2021/10/24 07:51:07;;;;;;;12.35;6.65;;;;;;;15.97;65.72;102261.19;5009782;27;102184;-93
2021/10/24 07:53:34;;;;;;;9.52;5.95;;;;;;;15.99;66.24;102274.66;5013871;27;102037;-92
2021/10/24 07:56:02;;;;;;;9.75;6.05;;;;;;;15.99;65.85;102272.75;5019403;28;102124;-92
2021/10/24 07:58:31;;;;;;;10.18;6.30;;;;;;;15.98;66.16;102273.84;5018596;27;102782;-92
2021/10/24 08:01:00;;;;;;;9.70;6.25;;;;;;;15.99;66.09;102266.44;5017018;27;102115;-92
2021/10/24 08:03:26;;;;;;;11.43;6.50;;;;;;;15.99;65.70;102267.25;5006389;27;102132;-91
2021/10/24 08:05:52;;;;;;;9.40;6.28;;;;;;;16.00;65.67;102274.38;5019587;27;102155;-90
2021/10/24 08:08:19;;;;;;;11.80;6.18;;;;;;;15.99;66.21;102267.25;5013358;28;102883;-91
2021/10/24 08:10:46;;;;;;;9.20;6.05;;;;;;;15.99;66.23;102272.75;5014826;28;102001;-90
2021/10/24 08:13:12;;;;;;;8.27;5.88;;;;;;;16.01;66.14;102266.97;5018236;27;102218;-90
2021/10/24 08:15:40;;;;;;;9.30;5.88;;;;;;;16.00;65.57;102262.59;5009023;27;102108;-91
2021/10/24 08:18:08;;;;;;;8.33;5.80;;;;;;;16.00;65.85;102266.16;5015675;27;102816;-90
2021/10/24 08:20:35;;;;;;;8.73;5.60;;;;;;;16.01;66.04;102267.81;5012505;27;102182;-91
2021/10/24 08:23:02;;;;;;;10.30;6.03;;;;;;;16.01;66.25;102270.56;5012636;28;101950;-90
2021/10/24 08:25:28;;;;;;;8.13;5.35;;;;;;;16.03;65.99;102275.78;5016606;27;102169;-90
2021/10/24 08:27:55;;;;;;;9.10;6.10;;;;;;;16.03;66.27;102276.59;5014990;27;102821;-91
2021/10/24 08:30:22;;;;;;;8.40;5.72;;;;;;;16.03;66.18;102275.78;5014525;27;102162;-90
2021/10/24 08:32:51;;;;;;;9.15;5.70;;;;;;;16.03;65.63;102278.53;5032802;27;102197;-91
2021/10/24 08:35:18;;;;;;;8.75;5.78;;;;;;;16.04;66.13;102282.91;5018330;27;102099;-91
2021/10/24 08:37:45;;;;;;;9.95;5.60;;;;;;;16.03;65.78;102276.59;5010750;27;102716;-92
2021/10/24 08:40:12;;;;;;;8.55;5.55;;;;;;;16.03;66.18;102265.63;5017255;27;101971;-92
2021/10/24 08:42:40;;;;;;;10.93;6.10;;;;;;;16.03;65.69;102271.09;5014949;27;102125;-92
2021/10/24 08:45:09;;;;;;;8.35;5.57;;;;;;;16.04;65.71;102270.00;5017278;27;102243;-91
2021/10/24 08:47:37;;;;;;;7.15;5.50;;;;;;;16.05;66.02;102268.94;5014620;27;102484;-92
2021/10/24 08:50:06;;;;;;;6.93;5.20;;;;;;;16.06;65.73;102278.81;5013457;27;102263;-92
2021/10/24 08:52:35;;;;;;;9.10;5.38;;;;;;;16.06;66.11;102273.31;5011647;27;102029;-91
2021/10/24 08:55:02;;;;;;;;;;;;;;;16.06;65.72;102270.56;5016336;27;102188;-91
2021/10/24 08:57:29;;;;;;;7.95;5.43;;;;;;;16.06;65.74;102276.06;5006148;27;102391;-91
2021/10/24 08:59:56;;;;;;;7.28;5.03;;;;;;;16.06;66.25;102276.06;5018939;27;102130;-92
2021/10/24 09:02:23;;;;;;;7.82;4.93;;;;;;;16.06;66.21;102262.34;5022404;27;101927;-92
2021/10/24 09:04:52;;;;;;;6.30;4.68;;;;;;;16.07;66.14;102261.22;5021976;27;102069;-91
2021/10/24 09:07:21;;;;;;;9.52;5.25;;;;;;;16.09;65.56;102270.03;5020584;27;102387;-91
2021/10/24 09:09:48;;;;;;;;;;;;;;;16.08;65.98;102262.91;5018484;22;102256;-49
2021/10/24 09:12:16;;;;;;;6.70;4.40;;;;;;;16.07;65.69;102266.72;4991163;27;102207;-49
2021/10/24 09:14:48;;;;;;;9.77;5.30;;;;;;;16.07;66.01;102254.91;4993363;27;102902;-50
2021/10/24 09:17:18;;;;;;;6.80;5.30;;;;;;;16.08;65.76;102251.91;4987117;27;104099;-48
2021/10/24 09:19:49;;;;;;;6.22;4.63;;;;;;;16.08;65.80;102254.66;4993727;27;102462;-48
2021/10/24 09:22:18;;;;;;;6.55;4.68;;;;;;;16.10;65.63;102259.88;4994564;27;102209;-50
2021/10/24 09:25:08;;;;;;;7.03;4.82;;;;;;;16.08;65.79;102262.91;4990537;27;103697;-49
2021/10/24 09:27:43;;;;;;;5.82;4.13;;;;;;;16.10;65.92;102259.88;4983882;28;103804;-50
2021/10/24 09:30:12;;;;;;;5.13;4.20;;;;;;;16.10;65.78;102259.88;4982512;28;102342;-49
2021/10/24 09:33:09;;;;;;;7.95;4.78;;;;;;;16.09;65.59;102259.03;4984947;27;103259;-49
2021/10/24 09:35:38;;;;;;;7.43;4.97;;;;;;;16.09;65.41;102259.03;4965881;28;102782;-49
2021/10/24 09:38:06;;;;;;;6.55;4.22;;;;;;;16.09;65.72;102264.53;4986728;28;103846;-48
2021/10/24 09:40:37;;;;;;;6.47;4.33;;;;;;;16.09;65.87;102259.03;4988560;28;102391;-48
2021/10/24 09:43:17;;;;;;;6.95;4.40;;;;;;;16.09;65.99;102261.78;4982279;28;102708;-49
2021/10/24 09:45:45;;;;;;;6.93;4.65;;;;;;;16.10;65.56;102260.69;4976162;28;102237;-48
2021/10/24 09:48:14;;;;;;;7.90;4.45;;;;;;;16.11;65.75;102272.50;4976630;28;103985;-48
2021/10/24 09:50:46;;;;;;;6.05;3.97;;;;;;;16.10;65.83;102252.44;4991095;28;103010;-48
2021/10/24 09:53:15;;;;;;;7.07;4.28;;;;;;;16.10;65.84;102266.19;4981412;28;102332;-49
2021/10/24 09:55:46;;;;;;;5.93;4.20;;;;;;;16.11;65.52;102258.75;4986489;27;102274;-48
2021/10/24 09:58:15;;;;;;;6.25;4.40;;;;;;;16.10;65.65;102257.94;4995856;28;104609;-48
2021/10/24 10:00:43;;;;;;;8.53;4.63;;;;;;;16.10;65.63;102259.88;4997395;28;102368;-51
2021/10/24 10:03:09;;;;;;;6.73;4.53;;;;;;;16.09;65.78;102261.78;4989688;28;102063;-48
2021/10/24 10:05:37;;;;;;;5.82;4.38;;;;;;;16.08;65.91;102251.91;4997319;27;103175;-48
2021/10/24 10:08:05;;;;;;;5.85;4.20;;;;;;;16.10;65.51;102263.44;4986786;28;104006;-49
2021/10/24 10:10:36;;;;;;;7.05;3.97;;;;;;;16.10;65.79;102266.19;4993815;28;102230;-47
2021/10/24 10:13:09;;;;;;;4.85;3.85;;;;;;;16.09;65.85;102264.53;4990671;28;102670;-48
2021/10/24 10:15:38;;;;;;;15.73;4.75;;;;;;;16.10;65.85;102268.09;4987354;28;102178;-48
2021/10/24 10:18:05;;;;;;;9.50;4.50;;;;;;;16.09;65.92;102264.53;4988379;27;104120;-48
2021/10/24 10:20:35;;;;;;;10.15;4.85;;;;;;;16.09;65.42;102263.72;4992108;27;102337;-48
2021/10/24 10:23:07;;;;;;;5.78;3.78;;;;;;;16.09;65.32;102259.03;4985501;27;102677;-48
2021/10/24 10:25:37;;;;;;;6.53;4.00;;;;;;;16.08;65.78;102284.88;4990685;27;102304;-48
2021/10/24 10:28:07;;;;;;;8.65;3.90;;;;;;;16.09;65.53;102263.72;4993853;27;103827;-49
2021/10/24 10:30:37;;;;;;;7.15;4.32;;;;;;;16.07;65.74;102263.97;4990976;28;102228;-48
2021/10/24 10:33:30;;;;;;;6.40;4.43;;;;;;;16.09;65.80;102264.53;4992498;28;102762;-49
2021/10/24 10:35:57;;;;;;;7.28;4.30;;;;;;;16.08;65.71;102262.91;4985974;27;103087;-49
2021/10/24 10:38:32;;;;;;;6.22;4.00;;;;;;;16.08;65.79;102257.41;4984088;28;103857;-49
2021/10/24 10:40:58;;;;;;;6.93;4.47;;;;;;;16.08;65.52;102270.28;4986746;28;102806;-48
2021/10/24 10:43:27;;;;;;;6.15;3.92;;;;;;;16.07;65.36;102260.41;4994429;27;102582;-48
2021/10/24 10:45:56;;;;;;;8.38;4.30;;;;;;;16.07;65.44;102265.91;4982206;27;102383;-49
2021/10/24 10:51:13;;;;;;;5.85;4.15;;;;;;;16.07;65.90;102276.88;5002331;27;102725;-48
2021/10/24 10:53:55;;;;;;;5.55;4.00;;;;;;;16.05;65.70;102274.41;5017843;28;102204;-48
2021/10/24 10:56:46;;;;;;;6.25;3.97;;;;;;;16.06;65.47;102281.56;5015031;28;102510;-48
2021/10/24 10:59:35;;;;;;;7.38;4.07;;;;;;;16.06;65.47;102280.72;5019110;28;104119;-48
2021/10/24 11:02:23;;;;;;;6.57;4.18;;;;;;;16.06;65.24;102281.56;5012402;28;102835;-49
2021/10/24 11:04:50;;;;;;;8.25;4.97;;;;;;;16.05;65.51;102282.66;4992852;28;103868;-48
2021/10/24 11:07:37;;;;;;;5.05;3.85;;;;;;;16.05;65.55;102290.91;5000013;28;102809;-48
2021/10/24 11:10:05;;;;;;;8.02;4.57;;;;;;;16.06;65.73;102286.22;5008923;28;103988;-48
2021/10/24 11:12:41;;;;;;;6.47;4.27;;;;;;;16.05;65.66;102287.34;5014924;28;102528;-48
2021/10/24 11:15:16;;;;;;;5.72;3.97;;;;;;;16.05;65.72;102290.91;4997741;28;102566;-48
2021/10/24 11:17:46;;;;;;;5.85;4.28;;;;;;;16.05;65.44;102295.56;4994341;28;103946;-48
2021/10/24 11:20:18;;;;;;;6.15;4.38;;;;;;;16.03;65.58;102287.59;4983695;28;103465;-47
2021/10/24 11:22:52;;;;;;;5.88;4.18;;;;;;;16.05;65.75;102285.41;4997075;28;102196;-48
2021/10/24 11:25:26;;;;;;;5.32;4.07;;;;;;;16.05;65.29;102285.41;4992814;28;102487;-48